GTSHC FPPR-FGSL
Flight info
| Callsign | GTSHC |
|---|---|
| Flight time | 0h 58m |
| Altitude | 5500 |
| Route | DCT |
| Aircraft | TBM9/L-V/N |
Departure
| Time | 2026-05-04 18:38 |
|---|---|
| Airport | Principe Airport (FPPR) |
Arrival
| Time | 2026-05-04 19:36 |
|---|---|
| Airport | Malabo International Airport (FGSL) |
| Time | Latitude | Longitude | Altitude | Speed | Heading |
|---|---|---|---|---|---|
| 2026-05-04 18:35 | 1.66499 | 7.41180 | 558 ft | 9 kts | 261° |
| 2026-05-04 18:36 | 1.66503 | 7.41115 | 554 ft | 9 kts | 340° |
| 2026-05-04 18:36 | 1.66582 | 7.41101 | 557 ft | 7 kts | 197° |
| 2026-05-04 18:36 | 1.66549 | 7.41108 | 552 ft | 0 kts | 180° |
| 2026-05-04 18:36 | 1.66548 | 7.41108 | 552 ft | 3 kts | 180° |
| 2026-05-04 18:37 | 1.66286 | 7.41106 | 549 ft | 72 kts | 179° |
| 2026-05-04 18:37 | 1.65647 | 7.41091 | 755 ft | 103 kts | 180° |
| 2026-05-04 18:37 | 1.64836 | 7.41092 | 985 ft | 131 kts | 177° |
| 2026-05-04 18:37 | 1.63830 | 7.41095 | 1167 ft | 158 kts | 197° |
| 2026-05-04 18:38 | 1.63003 | 7.40324 | 1444 ft | 172 kts | 250° |
| 2026-05-04 18:38 | 1.63102 | 7.39245 | 2178 ft | 158 kts | 299° |
| 2026-05-04 18:38 | 1.63979 | 7.38609 | 2663 ft | 163 kts | 348° |
| 2026-05-04 18:38 | 1.65055 | 7.38856 | 3159 ft | 164 kts | 39° |
| 2026-05-04 18:39 | 1.65696 | 7.39778 | 3649 ft | 163 kts | 61° |
| 2026-05-04 18:39 | 1.66372 | 7.40679 | 4139 ft | 163 kts | 43° |
| 2026-05-04 18:39 | 1.67296 | 7.41340 | 4641 ft | 164 kts | 33° |
| 2026-05-04 18:39 | 1.68264 | 7.41946 | 5124 ft | 164 kts | 33° |
| 2026-05-04 18:40 | 1.69266 | 7.42561 | 5378 ft | 181 kts | 33° |
| 2026-05-04 18:40 | 1.70380 | 7.43256 | 5393 ft | 195 kts | 33° |
| 2026-05-04 18:40 | 1.71555 | 7.43989 | 5393 ft | 203 kts | 33° |
| 2026-05-04 18:40 | 1.72767 | 7.44745 | 5391 ft | 207 kts | 33° |
| 2026-05-04 18:41 | 1.74000 | 7.45512 | 5392 ft | 210 kts | 33° |
| 2026-05-04 18:41 | 1.75247 | 7.46287 | 5396 ft | 212 kts | 33° |
| 2026-05-04 18:41 | 1.76501 | 7.47067 | 5395 ft | 213 kts | 33° |
| 2026-05-04 18:41 | 1.77757 | 7.47849 | 5411 ft | 212 kts | 33° |
| 2026-05-04 18:42 | 1.78964 | 7.48598 | 5787 ft | 196 kts | 33° |
| 2026-05-04 18:42 | 1.80125 | 7.49320 | 5880 ft | 200 kts | 34° |
| 2026-05-04 18:42 | 1.81323 | 7.50068 | 5881 ft | 206 kts | 34° |
| 2026-05-04 18:42 | 1.82548 | 7.50831 | 5875 ft | 209 kts | 34° |
| 2026-05-04 18:43 | 1.83788 | 7.51603 | 5880 ft | 211 kts | 33° |
| 2026-05-04 18:43 | 1.85037 | 7.52380 | 5875 ft | 212 kts | 33° |
| 2026-05-04 18:43 | 1.86289 | 7.53158 | 5880 ft | 212 kts | 33° |
| 2026-05-04 18:43 | 1.87544 | 7.53940 | 5884 ft | 213 kts | 33° |
| 2026-05-04 18:44 | 1.88801 | 7.54722 | 5885 ft | 213 kts | 33° |
| 2026-05-04 18:44 | 1.89225 | 7.54986 | 5882 ft | 213 kts | 33° |
| 2026-05-04 18:44 | 1.91320 | 7.56290 | 5887 ft | 214 kts | 33° |
| 2026-05-04 18:44 | 1.92581 | 7.57074 | 5880 ft | 214 kts | 34° |
| 2026-05-04 18:45 | 1.93841 | 7.57859 | 5888 ft | 214 kts | 33° |
| 2026-05-04 18:45 | 1.95105 | 7.58646 | 5890 ft | 214 kts | 34° |
| 2026-05-04 18:45 | 1.96370 | 7.59433 | 5890 ft | 214 kts | 33° |
| 2026-05-04 18:45 | 1.97633 | 7.60219 | 5891 ft | 214 kts | 34° |
| 2026-05-04 18:46 | 1.98896 | 7.61005 | 5890 ft | 214 kts | 34° |
| 2026-05-04 18:46 | 2.00158 | 7.61791 | 5890 ft | 214 kts | 34° |
| 2026-05-04 18:46 | 2.01421 | 7.62577 | 5878 ft | 214 kts | 34° |
| 2026-05-04 18:46 | 2.02684 | 7.63363 | 5885 ft | 214 kts | 33° |
| 2026-05-04 18:47 | 2.03932 | 7.64140 | 5886 ft | 214 kts | 33° |
| 2026-05-04 18:47 | 2.05214 | 7.64938 | 5886 ft | 214 kts | 34° |
| 2026-05-04 18:47 | 2.06460 | 7.65714 | 5887 ft | 214 kts | 33° |
| 2026-05-04 18:47 | 2.07724 | 7.66500 | 5882 ft | 214 kts | 33° |
| 2026-05-04 18:48 | 2.08986 | 7.67287 | 5887 ft | 214 kts | 33° |
| 2026-05-04 18:48 | 2.10250 | 7.68073 | 5884 ft | 214 kts | 34° |
| 2026-05-04 18:48 | 2.11513 | 7.68860 | 5886 ft | 214 kts | 33° |
| 2026-05-04 18:48 | 2.12776 | 7.69645 | 5880 ft | 214 kts | 33° |
| 2026-05-04 18:49 | 2.14038 | 7.70432 | 5886 ft | 214 kts | 33° |
| 2026-05-04 18:49 | 2.15301 | 7.71218 | 5878 ft | 214 kts | 33° |
| 2026-05-04 18:49 | 2.16564 | 7.72004 | 5885 ft | 214 kts | 34° |
| 2026-05-04 18:49 | 2.17825 | 7.72789 | 5886 ft | 214 kts | 33° |
| 2026-05-04 18:50 | 2.19092 | 7.73578 | 5886 ft | 216 kts | 34° |
| 2026-05-04 18:50 | 2.20383 | 7.74383 | 5889 ft | 221 kts | 34° |
| 2026-05-04 18:50 | 2.21695 | 7.75200 | 5892 ft | 223 kts | 33° |
| 2026-05-04 18:50 | 2.23017 | 7.76023 | 5892 ft | 225 kts | 33° |
| 2026-05-04 18:51 | 2.24349 | 7.76852 | 5885 ft | 226 kts | 33° |
| 2026-05-04 18:51 | 2.25684 | 7.77683 | 5892 ft | 226 kts | 33° |
| 2026-05-04 18:51 | 2.27020 | 7.78515 | 5886 ft | 226 kts | 33° |
| 2026-05-04 18:51 | 2.28358 | 7.79348 | 5888 ft | 227 kts | 33° |
| 2026-05-04 18:52 | 2.29699 | 7.80183 | 5886 ft | 227 kts | 33° |
| 2026-05-04 18:52 | 2.30586 | 7.80736 | 5889 ft | 227 kts | 33° |
| 2026-05-04 18:52 | 2.31930 | 7.81573 | 5883 ft | 228 kts | 33° |
| 2026-05-04 18:52 | 2.33275 | 7.82410 | 5886 ft | 228 kts | 33° |
| 2026-05-04 18:53 | 2.34618 | 7.83248 | 5886 ft | 227 kts | 33° |
| 2026-05-04 18:53 | 2.35960 | 7.84084 | 5883 ft | 227 kts | 33° |
| 2026-05-04 18:53 | 2.37305 | 7.84919 | 5890 ft | 227 kts | 33° |
| 2026-05-04 18:53 | 2.38641 | 7.85750 | 5888 ft | 225 kts | 33° |
| 2026-05-04 18:54 | 2.39958 | 7.86570 | 5883 ft | 222 kts | 33° |
| 2026-05-04 18:54 | 2.41262 | 7.87384 | 5879 ft | 220 kts | 33° |
| 2026-05-04 18:54 | 2.42560 | 7.88194 | 5883 ft | 220 kts | 33° |
| 2026-05-04 18:54 | 2.43855 | 7.89000 | 5883 ft | 219 kts | 33° |
| 2026-05-04 18:55 | 2.45148 | 7.89805 | 5882 ft | 219 kts | 34° |
| 2026-05-04 18:55 | 2.47458 | 7.91758 | 5881 ft | 217 kts | 44° |
| 2026-05-04 18:55 | 2.48573 | 7.92778 | 5881 ft | 217 kts | 44° |
| 2026-05-04 18:56 | 2.49686 | 7.93798 | 5881 ft | 217 kts | 44° |
| 2026-05-04 18:56 | 2.50799 | 7.94819 | 5880 ft | 217 kts | 44° |
| 2026-05-04 18:56 | 2.51912 | 7.95838 | 5878 ft | 217 kts | 44° |
| 2026-05-04 18:56 | 2.53026 | 7.96858 | 5878 ft | 217 kts | 44° |
| 2026-05-04 18:57 | 2.54125 | 7.97864 | 5868 ft | 217 kts | 44° |
| 2026-05-04 18:57 | 2.55240 | 7.98880 | 5873 ft | 217 kts | 44° |
| 2026-05-04 18:57 | 2.56352 | 7.99894 | 5878 ft | 216 kts | 44° |
| 2026-05-04 18:57 | 2.57466 | 8.00908 | 5878 ft | 217 kts | 44° |
| 2026-05-04 18:58 | 2.58579 | 8.01922 | 5879 ft | 217 kts | 44° |
| 2026-05-04 18:58 | 2.59694 | 8.02939 | 5878 ft | 217 kts | 44° |
| 2026-05-04 18:58 | 2.60807 | 8.03956 | 5882 ft | 217 kts | 44° |
| 2026-05-04 18:58 | 2.61919 | 8.04973 | 5882 ft | 217 kts | 44° |
| 2026-05-04 18:59 | 2.63017 | 8.06002 | 5878 ft | 217 kts | 45° |
| 2026-05-04 18:59 | 2.64102 | 8.07066 | 5756 ft | 219 kts | 46° |
| 2026-05-04 18:59 | 2.65185 | 8.08136 | 5637 ft | 219 kts | 46° |
| 2026-05-04 18:59 | 2.66270 | 8.09211 | 5516 ft | 220 kts | 46° |
| 2026-05-04 19:00 | 2.67353 | 8.10289 | 5396 ft | 220 kts | 46° |
| 2026-05-04 19:00 | 2.68435 | 8.11369 | 5277 ft | 220 kts | 46° |
| 2026-05-04 19:00 | 2.69498 | 8.12433 | 5154 ft | 212 kts | 46° |
| 2026-05-04 19:00 | 2.70522 | 8.13460 | 5030 ft | 206 kts | 46° |
| 2026-05-04 19:01 | 2.71523 | 8.14472 | 4908 ft | 203 kts | 46° |
| 2026-05-04 19:01 | 2.72514 | 8.15474 | 4782 ft | 202 kts | 46° |
| 2026-05-04 19:01 | 2.73499 | 8.16474 | 4661 ft | 202 kts | 46° |
| 2026-05-04 19:01 | 2.74480 | 8.17478 | 4538 ft | 202 kts | 46° |
| 2026-05-04 19:02 | 2.75458 | 8.18482 | 4416 ft | 201 kts | 46° |
| 2026-05-04 19:02 | 2.76433 | 8.19489 | 4292 ft | 202 kts | 46° |
| 2026-05-04 19:02 | 2.77408 | 8.20499 | 4172 ft | 202 kts | 46° |
| 2026-05-04 19:02 | 2.78383 | 8.21514 | 4050 ft | 202 kts | 46° |
| 2026-05-04 19:03 | 2.79353 | 8.22527 | 4003 ft | 199 kts | 46° |
| 2026-05-04 19:03 | 2.80301 | 8.23520 | 4001 ft | 196 kts | 46° |
| 2026-05-04 19:03 | 2.81238 | 8.24500 | 4000 ft | 194 kts | 46° |
| 2026-05-04 19:03 | 2.82168 | 8.25476 | 3998 ft | 193 kts | 46° |
| 2026-05-04 19:04 | 2.83094 | 8.26450 | 3997 ft | 193 kts | 46° |
| 2026-05-04 19:04 | 2.84007 | 8.27409 | 3995 ft | 193 kts | 46° |
| 2026-05-04 19:04 | 2.84931 | 8.28379 | 3995 ft | 192 kts | 46° |
| 2026-05-04 19:04 | 2.85852 | 8.29349 | 3995 ft | 192 kts | 46° |
| 2026-05-04 19:05 | 2.86772 | 8.30319 | 3995 ft | 192 kts | 46° |
| 2026-05-04 19:05 | 2.87694 | 8.31289 | 3995 ft | 194 kts | 46° |
| 2026-05-04 19:05 | 2.88634 | 8.32278 | 3996 ft | 198 kts | 46° |
| 2026-05-04 19:05 | 2.89588 | 8.33285 | 3999 ft | 200 kts | 46° |
| 2026-05-04 19:06 | 2.90550 | 8.34298 | 4002 ft | 202 kts | 46° |
| 2026-05-04 19:06 | 2.91516 | 8.35317 | 4005 ft | 202 kts | 46° |
| 2026-05-04 19:06 | 2.92479 | 8.36341 | 4005 ft | 202 kts | 46° |
| 2026-05-04 19:06 | 2.93441 | 8.37364 | 4004 ft | 202 kts | 46° |
| 2026-05-04 19:07 | 2.94405 | 8.38385 | 4004 ft | 202 kts | 46° |
| 2026-05-04 19:07 | 2.95369 | 8.39405 | 4004 ft | 202 kts | 46° |
| 2026-05-04 19:07 | 2.96330 | 8.40428 | 4004 ft | 202 kts | 46° |
| 2026-05-04 19:07 | 2.97292 | 8.41452 | 4002 ft | 202 kts | 46° |
| 2026-05-04 19:08 | 2.98258 | 8.42476 | 4002 ft | 202 kts | 46° |
| 2026-05-04 19:08 | 2.99222 | 8.43499 | 4002 ft | 202 kts | 46° |
| 2026-05-04 19:08 | 3.00185 | 8.44524 | 3991 ft | 202 kts | 46° |
| 2026-05-04 19:08 | 3.01163 | 8.45564 | 3871 ft | 208 kts | 46° |
| 2026-05-04 19:09 | 3.02155 | 8.46625 | 3760 ft | 210 kts | 46° |
| 2026-05-04 19:09 | 3.03144 | 8.47681 | 3643 ft | 211 kts | 46° |
| 2026-05-04 19:09 | 3.04152 | 8.48755 | 3524 ft | 212 kts | 46° |
| 2026-05-04 19:09 | 3.05165 | 8.49833 | 3406 ft | 213 kts | 46° |
| 2026-05-04 19:10 | 3.06177 | 8.50917 | 3288 ft | 214 kts | 46° |
| 2026-05-04 19:10 | 3.07176 | 8.52019 | 3171 ft | 214 kts | 47° |
| 2026-05-04 19:10 | 3.08155 | 8.53141 | 3050 ft | 214 kts | 48° |
| 2026-05-04 19:10 | 3.09126 | 8.54262 | 2989 ft | 210 kts | 47° |
| 2026-05-04 19:11 | 3.10071 | 8.55360 | 2998 ft | 207 kts | 48° |
| 2026-05-04 19:11 | 3.11004 | 8.56449 | 2998 ft | 206 kts | 48° |
| 2026-05-04 19:11 | 3.11937 | 8.57534 | 2992 ft | 206 kts | 48° |
| 2026-05-04 19:11 | 3.12868 | 8.58621 | 2993 ft | 206 kts | 47° |
| 2026-05-04 19:12 | 3.13802 | 8.59704 | 2992 ft | 205 kts | 48° |
| 2026-05-04 19:12 | 3.15658 | 8.61859 | 2992 ft | 204 kts | 48° |
| 2026-05-04 19:12 | 3.16579 | 8.62943 | 2991 ft | 204 kts | 49° |
| 2026-05-04 19:13 | 3.17503 | 8.64020 | 2994 ft | 204 kts | 48° |
| 2026-05-04 19:13 | 3.18429 | 8.65095 | 2995 ft | 204 kts | 49° |
| 2026-05-04 19:13 | 3.19351 | 8.66171 | 2999 ft | 204 kts | 48° |
| 2026-05-04 19:13 | 3.20316 | 8.67208 | 2999 ft | 203 kts | 39° |
| 2026-05-04 19:14 | 3.21456 | 8.68038 | 2997 ft | 203 kts | 32° |
| 2026-05-04 19:14 | 3.22621 | 8.68840 | 2998 ft | 204 kts | 33° |
| 2026-05-04 19:14 | 3.23778 | 8.69642 | 2996 ft | 201 kts | 34° |
| 2026-05-04 19:14 | 3.24932 | 8.70434 | 3002 ft | 200 kts | 33° |
| 2026-05-04 19:15 | 3.26082 | 8.71216 | 3002 ft | 200 kts | 33° |
| 2026-05-04 19:15 | 3.27231 | 8.72012 | 3009 ft | 202 kts | 32° |
| 2026-05-04 19:15 | 3.28362 | 8.72819 | 3015 ft | 203 kts | 33° |
| 2026-05-04 19:15 | 3.29518 | 8.73637 | 3011 ft | 204 kts | 34° |
| 2026-05-04 19:16 | 3.30676 | 8.74443 | 3006 ft | 202 kts | 33° |
| 2026-05-04 19:16 | 3.31827 | 8.75251 | 3011 ft | 202 kts | 34° |
| 2026-05-04 19:16 | 3.32975 | 8.76062 | 3017 ft | 202 kts | 33° |
| 2026-05-04 19:16 | 3.34128 | 8.76880 | 3009 ft | 203 kts | 33° |
| 2026-05-04 19:17 | 3.35277 | 8.77696 | 3008 ft | 202 kts | 33° |
| 2026-05-04 19:17 | 3.36427 | 8.78509 | 3008 ft | 203 kts | 33° |
| 2026-05-04 19:17 | 3.37578 | 8.79321 | 3005 ft | 202 kts | 33° |
| 2026-05-04 19:17 | 3.38731 | 8.80135 | 3008 ft | 203 kts | 32° |
| 2026-05-04 19:18 | 3.39881 | 8.80959 | 3007 ft | 203 kts | 34° |
| 2026-05-04 19:18 | 3.41038 | 8.81777 | 3002 ft | 203 kts | 33° |
| 2026-05-04 19:18 | 3.42191 | 8.82593 | 3002 ft | 203 kts | 33° |
| 2026-05-04 19:18 | 3.43341 | 8.83404 | 2999 ft | 202 kts | 33° |
| 2026-05-04 19:19 | 3.44485 | 8.84221 | 3005 ft | 202 kts | 33° |
| 2026-05-04 19:19 | 3.45633 | 8.85031 | 3002 ft | 201 kts | 32° |
| 2026-05-04 19:19 | 3.46799 | 8.85768 | 3001 ft | 196 kts | 30° |
| 2026-05-04 19:19 | 3.47953 | 8.86478 | 2991 ft | 193 kts | 29° |
| 2026-05-04 19:20 | 3.49095 | 8.87178 | 2983 ft | 192 kts | 29° |
| 2026-05-04 19:20 | 3.50242 | 8.87869 | 2936 ft | 193 kts | 30° |
| 2026-05-04 19:20 | 3.51389 | 8.88563 | 2886 ft | 193 kts | 28° |
| 2026-05-04 19:20 | 3.52543 | 8.89269 | 2835 ft | 195 kts | 29° |
| 2026-05-04 19:21 | 3.53694 | 8.89976 | 2789 ft | 194 kts | 30° |
| 2026-05-04 19:21 | 3.54846 | 8.90675 | 2739 ft | 194 kts | 29° |
| 2026-05-04 19:21 | 3.55998 | 8.91374 | 2690 ft | 194 kts | 29° |
| 2026-05-04 19:21 | 3.57151 | 8.92076 | 2648 ft | 195 kts | 28° |
| 2026-05-04 19:22 | 3.58312 | 8.92779 | 2600 ft | 195 kts | 30° |
| 2026-05-04 19:22 | 3.59473 | 8.93485 | 2550 ft | 196 kts | 30° |
| 2026-05-04 19:22 | 3.60636 | 8.94192 | 2492 ft | 195 kts | 29° |
| 2026-05-04 19:22 | 3.61795 | 8.94897 | 2442 ft | 195 kts | 29° |
| 2026-05-04 19:23 | 3.62890 | 8.95558 | 2384 ft | 176 kts | 28° |
| 2026-05-04 19:23 | 3.63908 | 8.96177 | 2297 ft | 167 kts | 30° |
| 2026-05-04 19:23 | 3.64881 | 8.96778 | 2224 ft | 163 kts | 28° |
| 2026-05-04 19:23 | 3.65841 | 8.97374 | 2135 ft | 162 kts | 30° |
| 2026-05-04 19:24 | 3.66797 | 8.97955 | 2094 ft | 158 kts | 29° |
| 2026-05-04 19:24 | 3.67810 | 8.98217 | 2088 ft | 153 kts | 349° |
| 2026-05-04 19:24 | 3.68837 | 8.97947 | 2088 ft | 153 kts | 342° |
| 2026-05-04 19:24 | 3.69870 | 8.97683 | 2091 ft | 153 kts | 343° |
| 2026-05-04 19:25 | 3.70896 | 8.97411 | 2089 ft | 152 kts | 342° |
| 2026-05-04 19:25 | 3.71914 | 8.97134 | 2091 ft | 152 kts | 343° |
| 2026-05-04 19:25 | 3.72932 | 8.96847 | 2093 ft | 151 kts | 340° |
| 2026-05-04 19:25 | 3.73921 | 8.96499 | 2094 ft | 150 kts | 337° |
| 2026-05-04 19:26 | 3.74905 | 8.96135 | 2092 ft | 151 kts | 336° |
| 2026-05-04 19:26 | 3.75900 | 8.95774 | 2103 ft | 153 kts | 337° |
| 2026-05-04 19:26 | 3.76911 | 8.95420 | 2096 ft | 153 kts | 338° |
| 2026-05-04 19:26 | 3.77906 | 8.95064 | 2094 ft | 151 kts | 338° |
| 2026-05-04 19:27 | 3.78899 | 8.94714 | 2098 ft | 153 kts | 337° |
| 2026-05-04 19:27 | 3.79862 | 8.94257 | 2102 ft | 154 kts | 326° |
| 2026-05-04 19:27 | 3.80788 | 8.93716 | 2103 ft | 154 kts | 329° |
| 2026-05-04 19:27 | 3.81691 | 8.93160 | 2104 ft | 152 kts | 326° |
| 2026-05-04 19:28 | 3.82573 | 8.92602 | 2102 ft | 152 kts | 326° |
| 2026-05-04 19:28 | 3.83480 | 8.92043 | 2104 ft | 151 kts | 326° |
| 2026-05-04 19:28 | 3.84374 | 8.91493 | 2102 ft | 154 kts | 326° |
| 2026-05-04 19:28 | 3.85291 | 8.90946 | 2107 ft | 153 kts | 326° |
| 2026-05-04 19:29 | 3.86204 | 8.90387 | 2108 ft | 155 kts | 322° |
| 2026-05-04 19:29 | 3.86959 | 8.89631 | 2107 ft | 152 kts | 309° |
| 2026-05-04 19:29 | 3.87655 | 8.88831 | 2106 ft | 152 kts | 310° |
| 2026-05-04 19:29 | 3.88358 | 8.88045 | 2108 ft | 151 kts | 310° |
| 2026-05-04 19:30 | 3.89068 | 8.87275 | 2107 ft | 150 kts | 311° |
| 2026-05-04 19:30 | 3.89771 | 8.86507 | 2104 ft | 149 kts | 310° |
| 2026-05-04 19:30 | 3.90462 | 8.85750 | 2099 ft | 146 kts | 310° |
| 2026-05-04 19:30 | 3.91050 | 8.84946 | 2095 ft | 142 kts | 286° |
| 2026-05-04 19:31 | 3.90886 | 8.84022 | 2104 ft | 137 kts | 234° |
| 2026-05-04 19:31 | 3.90066 | 8.83568 | 2110 ft | 138 kts | 202° |
| 2026-05-04 19:31 | 3.89256 | 8.83090 | 2107 ft | 133 kts | 223° |
| 2026-05-04 19:31 | 3.88540 | 8.82508 | 2111 ft | 132 kts | 223° |
| 2026-05-04 19:32 | 3.87841 | 8.81909 | 2105 ft | 131 kts | 223° |
| 2026-05-04 19:32 | 3.87153 | 8.81311 | 2111 ft | 131 kts | 225° |
| 2026-05-04 19:32 | 3.86463 | 8.80690 | 2104 ft | 135 kts | 226° |
| 2026-05-04 19:32 | 3.85750 | 8.80049 | 2108 ft | 141 kts | 224° |
| 2026-05-04 19:33 | 3.85013 | 8.79388 | 2111 ft | 143 kts | 224° |
| 2026-05-04 19:33 | 3.84261 | 8.78713 | 2039 ft | 148 kts | 225° |
| 2026-05-04 19:33 | 3.83472 | 8.78002 | 1854 ft | 156 kts | 224° |
| 2026-05-04 19:33 | 3.82648 | 8.77261 | 1657 ft | 162 kts | 224° |
| 2026-05-04 19:34 | 3.81819 | 8.76518 | 1440 ft | 155 kts | 224° |
| 2026-05-04 19:34 | 3.81035 | 8.75813 | 1240 ft | 148 kts | 225° |
| 2026-05-04 19:34 | 3.80375 | 8.75219 | 1092 ft | 118 kts | 224° |
| 2026-05-04 19:34 | 3.79799 | 8.74701 | 952 ft | 109 kts | 226° |
| 2026-05-04 19:35 | 3.79238 | 8.74196 | 814 ft | 108 kts | 224° |
| 2026-05-04 19:35 | 3.78686 | 8.73702 | 677 ft | 109 kts | 224° |
| 2026-05-04 19:35 | 3.78121 | 8.73196 | 541 ft | 109 kts | 224° |
| 2026-05-04 19:35 | 3.77552 | 8.72680 | 390 ft | 109 kts | 225° |
| 2026-05-04 19:36 | 3.76996 | 8.72174 | 277 ft | 108 kts | 222° |
| 2026-05-04 19:36 | 3.76445 | 8.71689 | 111 ft | 102 kts | 222° |
| 2026-05-04 19:36 | 3.75995 | 8.71290 | 58 ft | 69 kts | 225° |
| 2026-05-04 19:36 | 3.75735 | 8.71057 | 63 ft | 37 kts | 228° |
| 2026-05-04 19:37 | 3.75615 | 8.71016 | 65 ft | 17 kts | 151° |
| 2026-05-04 19:37 | 3.75514 | 8.71097 | 64 ft | 25 kts | 206° |
| 2026-05-04 19:37 | 3.75379 | 8.70975 | 67 ft | 27 kts | 220° |
| 2026-05-04 19:37 | 3.75246 | 8.70857 | 69 ft | 25 kts | 222° |
| 2026-05-04 19:38 | 3.75116 | 8.70743 | 67 ft | 25 kts | 222° |
| 2026-05-04 19:38 | 3.74984 | 8.70627 | 73 ft | 25 kts | 222° |
| 2026-05-04 19:38 | 3.74863 | 8.70528 | 75 ft | 18 kts | 176° |
| 2026-05-04 19:38 | 3.74865 | 8.70614 | 74 ft | 19 kts | 43° |
| 2026-05-04 19:39 | 3.74943 | 8.70725 | 73 ft | 22 kts | 96° |
| 2026-05-04 19:39 | 3.74892 | 8.70722 | 73 ft | 12 kts | 280° |
| 2026-05-04 19:39 | 3.74894 | 8.70703 | 73 ft | 0 kts | 274° |